sensor_id;sensor_type;location;lat;lon;timestamp;P1;durP1;ratioP1;P2;durP2;ratioP2
5135;SDS011;2586;48.710;9.202;2022-12-04T00:00:37;49.57;;;23.03;;
5135;SDS011;2586;48.710;9.202;2022-12-04T00:03:02;48.20;;;23.70;;
5135;SDS011;2586;48.710;9.202;2022-12-04T00:05:28;45.17;;;22.20;;
5135;SDS011;2586;48.710;9.202;2022-12-04T00:07:53;42.93;;;20.13;;
5135;SDS011;2586;48.710;9.202;2022-12-04T00:10:19;46.23;;;22.30;;
5135;SDS011;2586;48.710;9.202;2022-12-04T00:12:45;47.27;;;21.87;;
5135;SDS011;2586;48.710;9.202;2022-12-04T00:15:10;44.33;;;22.70;;
5135;SDS011;2586;48.710;9.202;2022-12-04T00:17:36;52.00;;;22.90;;
5135;SDS011;2586;48.710;9.202;2022-12-04T00:20:02;51.43;;;23.07;;
5135;SDS011;2586;48.710;9.202;2022-12-04T00:22:28;44.03;;;21.60;;
5135;SDS011;2586;48.710;9.202;2022-12-04T00:24:53;53.53;;;23.13;;
5135;SDS011;2586;48.710;9.202;2022-12-04T00:27:19;47.37;;;22.13;;
5135;SDS011;2586;48.710;9.202;2022-12-04T00:29:45;42.53;;;21.53;;
5135;SDS011;2586;48.710;9.202;2022-12-04T00:32:10;44.30;;;20.70;;
5135;SDS011;2586;48.710;9.202;2022-12-04T00:34:36;44.43;;;21.50;;
5135;SDS011;2586;48.710;9.202;2022-12-04T00:37:01;48.03;;;21.10;;
5135;SDS011;2586;48.710;9.202;2022-12-04T00:39:27;47.97;;;21.07;;
5135;SDS011;2586;48.710;9.202;2022-12-04T00:41:52;49.40;;;23.97;;
5135;SDS011;2586;48.710;9.202;2022-12-04T00:44:18;47.73;;;21.63;;
5135;SDS011;2586;48.710;9.202;2022-12-04T00:46:44;45.70;;;22.07;;
5135;SDS011;2586;48.710;9.202;2022-12-04T00:49:09;46.40;;;22.17;;
5135;SDS011;2586;48.710;9.202;2022-12-04T00:51:35;37.27;;;21.00;;
5135;SDS011;2586;48.710;9.202;2022-12-04T00:54:00;43.23;;;20.70;;
5135;SDS011;2586;48.710;9.202;2022-12-04T00:56:26;39.33;;;19.00;;
5135;SDS011;2586;48.710;9.202;2022-12-04T00:58:54;38.83;;;20.37;;
5135;SDS011;2586;48.710;9.202;2022-12-04T01:01:21;35.20;;;18.07;;
5135;SDS011;2586;48.710;9.202;2022-12-04T01:03:48;36.00;;;18.37;;
5135;SDS011;2586;48.710;9.202;2022-12-04T01:06:23;41.90;;;20.10;;
5135;SDS011;2586;48.710;9.202;2022-12-04T01:08:51;34.50;;;18.67;;
5135;SDS011;2586;48.710;9.202;2022-12-04T01:11:18;33.70;;;18.43;;
5135;SDS011;2586;48.710;9.202;2022-12-04T01:13:45;34.70;;;19.30;;
5135;SDS011;2586;48.710;9.202;2022-12-04T01:16:14;38.30;;;18.40;;
5135;SDS011;2586;48.710;9.202;2022-12-04T01:18:41;34.60;;;17.50;;
5135;SDS011;2586;48.710;9.202;2022-12-04T01:21:07;32.33;;;17.17;;
5135;SDS011;2586;48.710;9.202;2022-12-04T01:23:33;34.00;;;17.73;;
5135;SDS011;2586;48.710;9.202;2022-12-04T01:25:58;33.47;;;17.53;;
5135;SDS011;2586;48.710;9.202;2022-12-04T01:28:24;31.00;;;18.53;;
5135;SDS011;2586;48.710;9.202;2022-12-04T01:31:04;32.57;;;18.43;;
5135;SDS011;2586;48.710;9.202;2022-12-04T01:33:32;38.57;;;19.13;;
5135;SDS011;2586;48.710;9.202;2022-12-04T01:36:00;33.83;;;18.83;;
5135;SDS011;2586;48.710;9.202;2022-12-04T01:38:27;32.03;;;18.23;;
5135;SDS011;2586;48.710;9.202;2022-12-04T01:40:53;38.67;;;20.27;;
5135;SDS011;2586;48.710;9.202;2022-12-04T01:43:20;34.93;;;20.10;;
5135;SDS011;2586;48.710;9.202;2022-12-04T01:45:47;32.63;;;18.13;;
5135;SDS011;2586;48.710;9.202;2022-12-04T01:51:23;36.07;;;18.90;;
5135;SDS011;2586;48.710;9.202;2022-12-04T01:53:53;40.27;;;21.07;;
5135;SDS011;2586;48.710;9.202;2022-12-04T01:56:22;42.47;;;22.57;;
5135;SDS011;2586;48.710;9.202;2022-12-04T01:58:51;32.17;;;20.33;;
5135;SDS011;2586;48.710;9.202;2022-12-04T02:01:20;37.20;;;20.23;;
5135;SDS011;2586;48.710;9.202;2022-12-04T02:03:46;40.13;;;20.77;;
5135;SDS011;2586;48.710;9.202;2022-12-04T02:06:12;44.10;;;22.67;;
5135;SDS011;2586;48.710;9.202;2022-12-04T02:08:37;42.87;;;23.00;;
5135;SDS011;2586;48.710;9.202;2022-12-04T02:11:18;49.00;;;23.47;;
5135;SDS011;2586;48.710;9.202;2022-12-04T02:13:57;46.57;;;22.00;;
5135;SDS011;2586;48.710;9.202;2022-12-04T02:16:34;38.53;;;20.53;;
5135;SDS011;2586;48.710;9.202;2022-12-04T02:22:53;41.37;;;21.67;;
5135;SDS011;2586;48.710;9.202;2022-12-04T02:25:58;40.57;;;21.60;;
5135;SDS011;2586;48.710;9.202;2022-12-04T02:28:50;39.40;;;19.93;;
5135;SDS011;2586;48.710;9.202;2022-12-04T02:35:09;40.73;;;21.47;;
5135;SDS011;2586;48.710;9.202;2022-12-04T02:37:27;38.33;;;20.60;;
5135;SDS011;2586;48.710;9.202;2022-12-04T02:43:08;38.40;;;19.40;;
5135;SDS011;2586;48.710;9.202;2022-12-04T02:45:32;37.77;;;18.83;;
5135;SDS011;2586;48.710;9.202;2022-12-04T02:48:04;40.67;;;18.23;;
5135;SDS011;2586;48.710;9.202;2022-12-04T02:50:33;34.70;;;17.57;;
5135;SDS011;2586;48.710;9.202;2022-12-04T02:53:04;33.00;;;17.13;;
5135;SDS011;2586;48.710;9.202;2022-12-04T02:55:37;37.93;;;17.40;;
5135;SDS011;2586;48.710;9.202;2022-12-04T02:58:18;39.33;;;17.03;;
5135;SDS011;2586;48.710;9.202;2022-12-04T03:00:49;29.80;;;15.47;;
5135;SDS011;2586;48.710;9.202;2022-12-04T03:03:18;41.87;;;18.00;;
5135;SDS011;2586;48.710;9.202;2022-12-04T03:08:24;31.60;;;15.47;;
5135;SDS011;2586;48.710;9.202;2022-12-04T03:10:54;34.30;;;16.53;;
5135;SDS011;2586;48.710;9.202;2022-12-04T03:16:32;27.87;;;14.80;;
5135;SDS011;2586;48.710;9.202;2022-12-04T03:19:09;36.10;;;15.97;;
5135;SDS011;2586;48.710;9.202;2022-12-04T03:21:40;31.67;;;15.80;;
5135;SDS011;2586;48.710;9.202;2022-12-04T03:31:52;30.80;;;15.20;;
5135;SDS011;2586;48.710;9.202;2022-12-04T03:35:24;30.17;;;13.90;;
5135;SDS011;2586;48.710;9.202;2022-12-04T03:40:28;26.77;;;14.00;;
5135;SDS011;2586;48.710;9.202;2022-12-04T03:43:03;30.83;;;15.00;;
5135;SDS011;2586;48.710;9.202;2022-12-04T03:45:51;29.53;;;13.67;;
5135;SDS011;2586;48.710;9.202;2022-12-04T03:48:37;37.67;;;15.07;;
5135;SDS011;2586;48.710;9.202;2022-12-04T03:53:47;35.40;;;14.53;;
5135;SDS011;2586;48.710;9.202;2022-12-04T03:56:20;30.47;;;13.90;;
5135;SDS011;2586;48.710;9.202;2022-12-04T03:58:51;33.07;;;14.67;;
5135;SDS011;2586;48.710;9.202;2022-12-04T04:01:22;31.57;;;14.03;;
5135;SDS011;2586;48.710;9.202;2022-12-04T04:03:52;27.80;;;13.20;;
5135;SDS011;2586;48.710;9.202;2022-12-04T04:06:26;32.13;;;14.77;;
5135;SDS011;2586;48.710;9.202;2022-12-04T04:08:55;27.30;;;14.17;;
5135;SDS011;2586;48.710;9.202;2022-12-04T04:11:30;26.43;;;13.10;;
5135;SDS011;2586;48.710;9.202;2022-12-04T04:14:01;22.57;;;12.27;;
5135;SDS011;2586;48.710;9.202;2022-12-04T04:16:58;25.10;;;12.80;;
5135;SDS011;2586;48.710;9.202;2022-12-04T04:19:47;24.13;;;11.80;;
5135;SDS011;2586;48.710;9.202;2022-12-04T04:22:36;26.43;;;12.33;;
5135;SDS011;2586;48.710;9.202;2022-12-04T04:25:23;25.87;;;12.50;;
5135;SDS011;2586;48.710;9.202;2022-12-04T04:27:52;24.73;;;12.90;;
5135;SDS011;2586;48.710;9.202;2022-12-04T04:30:19;24.73;;;13.27;;
5135;SDS011;2586;48.710;9.202;2022-12-04T04:35:16;24.87;;;13.30;;
5135;SDS011;2586;48.710;9.202;2022-12-04T04:40:28;29.77;;;13.63;;
5135;SDS011;2586;48.710;9.202;2022-12-04T04:43:20;26.87;;;12.17;;
5135;SDS011;2586;48.710;9.202;2022-12-04T04:46:00;27.93;;;14.10;;
5135;SDS011;2586;48.710;9.202;2022-12-04T04:48:58;30.97;;;14.30;;
5135;SDS011;2586;48.710;9.202;2022-12-04T04:51:26;24.83;;;13.23;;
5135;SDS011;2586;48.710;9.202;2022-12-04T04:53:54;25.03;;;12.97;;
5135;SDS011;2586;48.710;9.202;2022-12-04T04:56:22;34.50;;;13.57;;
5135;SDS011;2586;48.710;9.202;2022-12-04T04:58:49;28.50;;;12.90;;
5135;SDS011;2586;48.710;9.202;2022-12-04T05:01:18;26.57;;;13.47;;
5135;SDS011;2586;48.710;9.202;2022-12-04T05:03:46;29.47;;;13.10;;
5135;SDS011;2586;48.710;9.202;2022-12-04T05:06:12;27.80;;;13.53;;
5135;SDS011;2586;48.710;9.202;2022-12-04T05:08:37;18.90;;;11.73;;
5135;SDS011;2586;48.710;9.202;2022-12-04T05:11:03;22.53;;;11.93;;
5135;SDS011;2586;48.710;9.202;2022-12-04T05:13:30;26.10;;;12.43;;
5135;SDS011;2586;48.710;9.202;2022-12-04T05:16:00;22.43;;;12.10;;
5135;SDS011;2586;48.710;9.202;2022-12-04T05:18:30;27.20;;;13.40;;
5135;SDS011;2586;48.710;9.202;2022-12-04T05:20:57;23.80;;;12.20;;
5135;SDS011;2586;48.710;9.202;2022-12-04T05:23:22;26.63;;;13.07;;
5135;SDS011;2586;48.710;9.202;2022-12-04T05:25:49;27.67;;;13.50;;
5135;SDS011;2586;48.710;9.202;2022-12-04T05:28:14;22.40;;;11.70;;
5135;SDS011;2586;48.710;9.202;2022-12-04T05:30:40;23.20;;;11.70;;
5135;SDS011;2586;48.710;9.202;2022-12-04T05:33:06;18.40;;;11.70;;
5135;SDS011;2586;48.710;9.202;2022-12-04T05:35:34;20.23;;;11.50;;
5135;SDS011;2586;48.710;9.202;2022-12-04T05:37:59;25.70;;;12.20;;
5135;SDS011;2586;48.710;9.202;2022-12-04T05:40:25;25.40;;;12.57;;
5135;SDS011;2586;48.710;9.202;2022-12-04T05:42:51;25.20;;;12.33;;
5135;SDS011;2586;48.710;9.202;2022-12-04T05:45:16;22.30;;;11.70;;
5135;SDS011;2586;48.710;9.202;2022-12-04T05:47:42;24.90;;;12.50;;
5135;SDS011;2586;48.710;9.202;2022-12-04T05:50:09;20.83;;;10.83;;
5135;SDS011;2586;48.710;9.202;2022-12-04T05:52:36;26.20;;;12.40;;
5135;SDS011;2586;48.710;9.202;2022-12-04T05:55:02;23.63;;;12.13;;
5135;SDS011;2586;48.710;9.202;2022-12-04T05:57:28;22.43;;;11.23;;
5135;SDS011;2586;48.710;9.202;2022-12-04T05:59:53;28.13;;;13.50;;
5135;SDS011;2586;48.710;9.202;2022-12-04T06:02:19;29.03;;;13.10;;
5135;SDS011;2586;48.710;9.202;2022-12-04T06:04:44;25.30;;;12.10;;
5135;SDS011;2586;48.710;9.202;2022-12-04T06:07:11;28.03;;;13.40;;
5135;SDS011;2586;48.710;9.202;2022-12-04T06:09:37;21.63;;;12.10;;
5135;SDS011;2586;48.710;9.202;2022-12-04T06:12:03;24.27;;;12.17;;
5135;SDS011;2586;48.710;9.202;2022-12-04T06:14:29;27.87;;;12.00;;
5135;SDS011;2586;48.710;9.202;2022-12-04T06:16:55;20.40;;;11.50;;
5135;SDS011;2586;48.710;9.202;2022-12-04T06:19:21;20.10;;;11.23;;
5135;SDS011;2586;48.710;9.202;2022-12-04T06:21:48;18.80;;;11.27;;
5135;SDS011;2586;48.710;9.202;2022-12-04T06:24:16;17.90;;;10.30;;
5135;SDS011;2586;48.710;9.202;2022-12-04T06:26:44;26.07;;;12.67;;
5135;SDS011;2586;48.710;9.202;2022-12-04T06:29:10;23.13;;;11.37;;
5135;SDS011;2586;48.710;9.202;2022-12-04T06:31:37;22.33;;;12.07;;
5135;SDS011;2586;48.710;9.202;2022-12-04T06:34:03;17.77;;;10.70;;
5135;SDS011;2586;48.710;9.202;2022-12-04T06:36:29;21.77;;;11.47;;
5135;SDS011;2586;48.710;9.202;2022-12-04T06:38:55;29.10;;;12.03;;
5135;SDS011;2586;48.710;9.202;2022-12-04T06:41:22;23.10;;;11.60;;
5135;SDS011;2586;48.710;9.202;2022-12-04T06:43:49;21.90;;;11.10;;
5135;SDS011;2586;48.710;9.202;2022-12-04T06:46:19;18.60;;;10.73;;
5135;SDS011;2586;48.710;9.202;2022-12-04T06:48:46;22.50;;;10.90;;
5135;SDS011;2586;48.710;9.202;2022-12-04T06:51:17;23.73;;;12.30;;
5135;SDS011;2586;48.710;9.202;2022-12-04T06:53:45;25.33;;;11.27;;
5135;SDS011;2586;48.710;9.202;2022-12-04T06:56:13;18.03;;;10.90;;
5135;SDS011;2586;48.710;9.202;2022-12-04T06:58:42;23.23;;;11.80;;
5135;SDS011;2586;48.710;9.202;2022-12-04T07:01:10;22.83;;;11.10;;
5135;SDS011;2586;48.710;9.202;2022-12-04T07:03:37;22.23;;;12.23;;
5135;SDS011;2586;48.710;9.202;2022-12-04T07:06:37;23.70;;;11.90;;
5135;SDS011;2586;48.710;9.202;2022-12-04T07:08:57;18.53;;;11.00;;
5135;SDS011;2586;48.710;9.202;2022-12-04T07:11:42;25.50;;;11.73;;
5135;SDS011;2586;48.710;9.202;2022-12-04T07:14:08;20.93;;;11.87;;
5135;SDS011;2586;48.710;9.202;2022-12-04T07:16:35;21.40;;;11.17;;
5135;SDS011;2586;48.710;9.202;2022-12-04T07:19:02;21.77;;;11.67;;
5135;SDS011;2586;48.710;9.202;2022-12-04T07:21:28;20.43;;;11.53;;
5135;SDS011;2586;48.710;9.202;2022-12-04T07:23:56;24.50;;;12.63;;
5135;SDS011;2586;48.710;9.202;2022-12-04T07:26:23;25.07;;;12.07;;
5135;SDS011;2586;48.710;9.202;2022-12-04T07:28:50;28.20;;;14.87;;
5135;SDS011;2586;48.710;9.202;2022-12-04T07:31:17;34.53;;;14.87;;
5135;SDS011;2586;48.710;9.202;2022-12-04T07:33:44;24.50;;;12.73;;
5135;SDS011;2586;48.710;9.202;2022-12-04T07:36:11;32.93;;;14.20;;
5135;SDS011;2586;48.710;9.202;2022-12-04T07:38:39;35.50;;;13.27;;
5135;SDS011;2586;48.710;9.202;2022-12-04T07:41:05;21.60;;;11.67;;
5135;SDS011;2586;48.710;9.202;2022-12-04T07:43:32;27.90;;;13.83;;
5135;SDS011;2586;48.710;9.202;2022-12-04T07:46:02;29.33;;;13.83;;
5135;SDS011;2586;48.710;9.202;2022-12-04T07:48:29;32.23;;;12.97;;
5135;SDS011;2586;48.710;9.202;2022-12-04T07:51:02;34.03;;;15.10;;
5135;SDS011;2586;48.710;9.202;2022-12-04T07:53:29;26.43;;;12.50;;
5135;SDS011;2586;48.710;9.202;2022-12-04T07:55:54;29.93;;;14.57;;
5135;SDS011;2586;48.710;9.202;2022-12-04T07:58:20;31.43;;;13.90;;
5135;SDS011;2586;48.710;9.202;2022-12-04T08:00:45;27.63;;;13.93;;
5135;SDS011;2586;48.710;9.202;2022-12-04T08:03:11;28.40;;;15.50;;
5135;SDS011;2586;48.710;9.202;2022-12-04T08:05:37;25.93;;;15.20;;
5135;SDS011;2586;48.710;9.202;2022-12-04T08:08:02;24.87;;;12.70;;
5135;SDS011;2586;48.710;9.202;2022-12-04T08:10:28;31.43;;;14.20;;
5135;SDS011;2586;48.710;9.202;2022-12-04T08:12:53;29.47;;;12.90;;
5135;SDS011;2586;48.710;9.202;2022-12-04T08:15:19;21.90;;;12.87;;
5135;SDS011;2586;48.710;9.202;2022-12-04T08:17:45;28.90;;;13.60;;
5135;SDS011;2586;48.710;9.202;2022-12-04T08:20:10;31.80;;;12.47;;
5135;SDS011;2586;48.710;9.202;2022-12-04T08:22:36;27.40;;;13.80;;
5135;SDS011;2586;48.710;9.202;2022-12-04T08:25:02;25.93;;;12.57;;
5135;SDS011;2586;48.710;9.202;2022-12-04T08:27:27;23.77;;;12.23;;
5135;SDS011;2586;48.710;9.202;2022-12-04T08:29:53;23.73;;;11.63;;
5135;SDS011;2586;48.710;9.202;2022-12-04T08:32:18;22.30;;;13.10;;
5135;SDS011;2586;48.710;9.202;2022-12-04T08:34:44;28.63;;;13.07;;
5135;SDS011;2586;48.710;9.202;2022-12-04T08:37:09;21.50;;;12.07;;
5135;SDS011;2586;48.710;9.202;2022-12-04T08:39:35;25.57;;;12.37;;
5135;SDS011;2586;48.710;9.202;2022-12-04T08:42:01;26.13;;;12.70;;
5135;SDS011;2586;48.710;9.202;2022-12-04T08:44:26;26.30;;;12.50;;
5135;SDS011;2586;48.710;9.202;2022-12-04T08:46:52;31.70;;;14.27;;
5135;SDS011;2586;48.710;9.202;2022-12-04T08:49:17;29.00;;;12.43;;
5135;SDS011;2586;48.710;9.202;2022-12-04T08:51:43;22.90;;;12.33;;
5135;SDS011;2586;48.710;9.202;2022-12-04T08:54:11;25.53;;;13.30;;
5135;SDS011;2586;48.710;9.202;2022-12-04T08:56:37;31.87;;;15.40;;
5135;SDS011;2586;48.710;9.202;2022-12-04T08:59:02;28.43;;;13.80;;
5135;SDS011;2586;48.710;9.202;2022-12-04T09:01:29;23.50;;;11.80;;
5135;SDS011;2586;48.710;9.202;2022-12-04T09:03:55;25.60;;;12.60;;
5135;SDS011;2586;48.710;9.202;2022-12-04T09:06:21;29.90;;;13.30;;
5135;SDS011;2586;48.710;9.202;2022-12-04T09:08:50;26.93;;;13.13;;
5135;SDS011;2586;48.710;9.202;2022-12-04T09:11:18;23.73;;;12.90;;
5135;SDS011;2586;48.710;9.202;2022-12-04T09:13:45;21.80;;;11.53;;
5135;SDS011;2586;48.710;9.202;2022-12-04T09:16:12;33.70;;;14.27;;
5135;SDS011;2586;48.710;9.202;2022-12-04T09:18:39;23.73;;;12.77;;
5135;SDS011;2586;48.710;9.202;2022-12-04T09:21:07;28.40;;;12.40;;
5135;SDS011;2586;48.710;9.202;2022-12-04T09:23:35;18.33;;;11.13;;
5135;SDS011;2586;48.710;9.202;2022-12-04T09:26:01;24.80;;;13.73;;
5135;SDS011;2586;48.710;9.202;2022-12-04T09:28:28;21.10;;;11.93;;
5135;SDS011;2586;48.710;9.202;2022-12-04T09:33:23;22.30;;;12.70;;
5135;SDS011;2586;48.710;9.202;2022-12-04T09:35:48;22.30;;;13.50;;
5135;SDS011;2586;48.710;9.202;2022-12-04T09:38:14;23.47;;;12.90;;
5135;SDS011;2586;48.710;9.202;2022-12-04T09:40:41;25.23;;;13.83;;
5135;SDS011;2586;48.710;9.202;2022-12-04T09:45:53;26.73;;;13.20;;
5135;SDS011;2586;48.710;9.202;2022-12-04T09:48:27;23.77;;;13.43;;
5135;SDS011;2586;48.710;9.202;2022-12-04T09:50:59;25.17;;;14.07;;
5135;SDS011;2586;48.710;9.202;2022-12-04T09:53:28;26.40;;;13.57;;
5135;SDS011;2586;48.710;9.202;2022-12-04T09:56:23;27.80;;;14.70;;
5135;SDS011;2586;48.710;9.202;2022-12-04T09:58:54;22.37;;;13.77;;
5135;SDS011;2586;48.710;9.202;2022-12-04T10:01:43;32.93;;;15.50;;
5135;SDS011;2586;48.710;9.202;2022-12-04T10:04:12;33.73;;;16.77;;
5135;SDS011;2586;48.710;9.202;2022-12-04T10:09:18;26.53;;;14.37;;
5135;SDS011;2586;48.710;9.202;2022-12-04T10:12:07;27.73;;;14.73;;
5135;SDS011;2586;48.710;9.202;2022-12-04T10:17:37;27.87;;;15.43;;
5135;SDS011;2586;48.710;9.202;2022-12-04T10:20:25;27.17;;;14.57;;
5135;SDS011;2586;48.710;9.202;2022-12-04T10:25:32;32.10;;;15.53;;
5135;SDS011;2586;48.710;9.202;2022-12-04T10:28:19;28.93;;;15.40;;
5135;SDS011;2586;48.710;9.202;2022-12-04T10:30:45;25.83;;;15.10;;
5135;SDS011;2586;48.710;9.202;2022-12-04T10:33:20;29.90;;;15.33;;
5135;SDS011;2586;48.710;9.202;2022-12-04T10:35:53;29.03;;;16.33;;
5135;SDS011;2586;48.710;9.202;2022-12-04T10:44:16;35.33;;;17.83;;
5135;SDS011;2586;48.710;9.202;2022-12-04T10:46:43;31.63;;;15.20;;
5135;SDS011;2586;48.710;9.202;2022-12-04T10:49:18;29.63;;;15.90;;
5135;SDS011;2586;48.710;9.202;2022-12-04T10:51:48;31.30;;;15.57;;
5135;SDS011;2586;48.710;9.202;2022-12-04T10:57:11;32.37;;;16.87;;
5135;SDS011;2586;48.710;9.202;2022-12-04T11:00:38;31.17;;;18.00;;
5135;SDS011;2586;48.710;9.202;2022-12-04T11:02:59;31.43;;;17.83;;
5135;SDS011;2586;48.710;9.202;2022-12-04T11:05:32;31.73;;;18.83;;
5135;SDS011;2586;48.710;9.202;2022-12-04T11:08:18;33.70;;;18.13;;
5135;SDS011;2586;48.710;9.202;2022-12-04T11:10:55;30.00;;;17.30;;
5135;SDS011;2586;48.710;9.202;2022-12-04T11:13:24;29.57;;;16.47;;
5135;SDS011;2586;48.710;9.202;2022-12-04T11:15:52;35.30;;;18.00;;
5135;SDS011;2586;48.710;9.202;2022-12-04T11:18:21;35.63;;;17.87;;
5135;SDS011;2586;48.710;9.202;2022-12-04T11:21:13;37.73;;;19.97;;
5135;SDS011;2586;48.710;9.202;2022-12-04T11:23:45;42.20;;;19.30;;
5135;SDS011;2586;48.710;9.202;2022-12-04T11:26:13;45.30;;;20.30;;
5135;SDS011;2586;48.710;9.202;2022-12-04T11:28:43;38.67;;;21.03;;
5135;SDS011;2586;48.710;9.202;2022-12-04T11:31:17;41.17;;;20.60;;
5135;SDS011;2586;48.710;9.202;2022-12-04T11:36:46;35.03;;;18.00;;
5135;SDS011;2586;48.710;9.202;2022-12-04T11:39:27;38.97;;;18.10;;
5135;SDS011;2586;48.710;9.202;2022-12-04T11:42:03;39.30;;;19.40;;
5135;SDS011;2586;48.710;9.202;2022-12-04T11:45:03;46.20;;;18.47;;
5135;SDS011;2586;48.710;9.202;2022-12-04T11:47:39;33.77;;;15.77;;
5135;SDS011;2586;48.710;9.202;2022-12-04T11:50:12;32.93;;;16.17;;
5135;SDS011;2586;48.710;9.202;2022-12-04T12:11:43;32.03;;;16.07;;
5135;SDS011;2586;48.710;9.202;2022-12-04T12:20:10;32.43;;;15.80;;
5135;SDS011;2586;48.710;9.202;2022-12-04T12:23:01;35.60;;;15.93;;
5135;SDS011;2586;48.710;9.202;2022-12-04T12:33:48;29.93;;;14.57;;
5135;SDS011;2586;48.710;9.202;2022-12-04T12:36:18;37.53;;;17.90;;
5135;SDS011;2586;48.710;9.202;2022-12-04T12:38:48;35.13;;;16.60;;
5135;SDS011;2586;48.710;9.202;2022-12-04T12:41:33;30.63;;;17.03;;
5135;SDS011;2586;48.710;9.202;2022-12-04T12:44:25;36.77;;;17.50;;
5135;SDS011;2586;48.710;9.202;2022-12-04T12:47:04;31.13;;;15.83;;
5135;SDS011;2586;48.710;9.202;2022-12-04T12:49:54;36.67;;;17.10;;
5135;SDS011;2586;48.710;9.202;2022-12-04T12:52:34;28.03;;;15.33;;
5135;SDS011;2586;48.710;9.202;2022-12-04T12:55:03;33.27;;;17.17;;
5135;SDS011;2586;48.710;9.202;2022-12-04T12:57:49;29.10;;;15.30;;
5135;SDS011;2586;48.710;9.202;2022-12-04T13:00:31;31.03;;;15.50;;
5135;SDS011;2586;48.710;9.202;2022-12-04T13:05:42;27.63;;;14.30;;
5135;SDS011;2586;48.710;9.202;2022-12-04T13:11:04;26.80;;;13.37;;
5135;SDS011;2586;48.710;9.202;2022-12-04T13:13:31;26.20;;;13.90;;
5135;SDS011;2586;48.710;9.202;2022-12-04T13:16:07;27.60;;;14.00;;
5135;SDS011;2586;48.710;9.202;2022-12-04T13:32:03;28.40;;;13.87;;
5135;SDS011;2586;48.710;9.202;2022-12-04T13:34:55;33.90;;;16.20;;
5135;SDS011;2586;48.710;9.202;2022-12-04T13:42:39;32.27;;;14.57;;
5135;SDS011;2586;48.710;9.202;2022-12-04T13:45:06;28.67;;;14.90;;
5135;SDS011;2586;48.710;9.202;2022-12-04T13:47:37;28.77;;;15.27;;
5135;SDS011;2586;48.710;9.202;2022-12-04T13:52:40;37.00;;;17.73;;
5135;SDS011;2586;48.710;9.202;2022-12-04T13:58:25;36.23;;;16.30;;
5135;SDS011;2586;48.710;9.202;2022-12-04T14:00:58;34.03;;;17.77;;
5135;SDS011;2586;48.710;9.202;2022-12-04T14:03:48;32.67;;;17.00;;
5135;SDS011;2586;48.710;9.202;2022-12-04T14:06:23;30.37;;;16.73;;
5135;SDS011;2586;48.710;9.202;2022-12-04T14:08:57;37.13;;;15.67;;
5135;SDS011;2586;48.710;9.202;2022-12-04T14:11:26;34.30;;;16.33;;
5135;SDS011;2586;48.710;9.202;2022-12-04T14:13:55;31.50;;;15.27;;
5135;SDS011;2586;48.710;9.202;2022-12-04T14:16:26;29.63;;;16.00;;
5135;SDS011;2586;48.710;9.202;2022-12-04T14:19:03;37.50;;;16.77;;
5135;SDS011;2586;48.710;9.202;2022-12-04T14:21:39;42.30;;;18.20;;
5135;SDS011;2586;48.710;9.202;2022-12-04T14:32:47;43.60;;;16.73;;
5135;SDS011;2586;48.710;9.202;2022-12-04T14:35:17;31.73;;;16.73;;
5135;SDS011;2586;48.710;9.202;2022-12-04T14:38:00;40.00;;;19.47;;
5135;SDS011;2586;48.710;9.202;2022-12-04T14:40:31;58.40;;;27.27;;
5135;SDS011;2586;48.710;9.202;2022-12-04T14:43:01;38.83;;;18.63;;
5135;SDS011;2586;48.710;9.202;2022-12-04T14:45:35;37.63;;;18.40;;
5135;SDS011;2586;48.710;9.202;2022-12-04T14:50:49;36.63;;;19.07;;
5135;SDS011;2586;48.710;9.202;2022-12-04T14:59:16;38.77;;;19.10;;
5135;SDS011;2586;48.710;9.202;2022-12-04T15:01:44;41.20;;;18.00;;
5135;SDS011;2586;48.710;9.202;2022-12-04T15:04:33;36.30;;;18.37;;
5135;SDS011;2586;48.710;9.202;2022-12-04T15:06:59;43.03;;;19.73;;
5135;SDS011;2586;48.710;9.202;2022-12-04T15:09:25;37.20;;;19.60;;
5135;SDS011;2586;48.710;9.202;2022-12-04T15:15:03;43.87;;;21.20;;
5135;SDS011;2586;48.710;9.202;2022-12-04T15:17:41;35.90;;;17.13;;
5135;SDS011;2586;48.710;9.202;2022-12-04T15:20:16;37.93;;;19.30;;
5135;SDS011;2586;48.710;9.202;2022-12-04T15:22:43;40.90;;;19.00;;
5135;SDS011;2586;48.710;9.202;2022-12-04T15:25:14;39.17;;;19.67;;
5135;SDS011;2586;48.710;9.202;2022-12-04T15:27:43;47.83;;;19.80;;
5135;SDS011;2586;48.710;9.202;2022-12-04T15:30:21;39.43;;;18.77;;
5135;SDS011;2586;48.710;9.202;2022-12-04T15:32:50;36.83;;;17.23;;
5135;SDS011;2586;48.710;9.202;2022-12-04T15:35:22;37.43;;;17.67;;
5135;SDS011;2586;48.710;9.202;2022-12-04T15:37:58;41.40;;;18.03;;
5135;SDS011;2586;48.710;9.202;2022-12-04T15:40:25;35.70;;;17.27;;
5135;SDS011;2586;48.710;9.202;2022-12-04T15:42:52;34.70;;;16.53;;
5135;SDS011;2586;48.710;9.202;2022-12-04T15:50:30;37.47;;;18.90;;
5135;SDS011;2586;48.710;9.202;2022-12-04T15:55:34;31.97;;;16.77;;
5135;SDS011;2586;48.710;9.202;2022-12-04T15:58:05;31.43;;;14.97;;
5135;SDS011;2586;48.710;9.202;2022-12-04T16:00:40;34.83;;;15.00;;
5135;SDS011;2586;48.710;9.202;2022-12-04T16:06:13;30.50;;;15.87;;
5135;SDS011;2586;48.710;9.202;2022-12-04T16:08:55;30.70;;;15.17;;
5135;SDS011;2586;48.710;9.202;2022-12-04T16:16:32;34.13;;;16.10;;
5135;SDS011;2586;48.710;9.202;2022-12-04T16:19:01;35.07;;;16.83;;
5135;SDS011;2586;48.710;9.202;2022-12-04T16:21:32;36.10;;;17.70;;
5135;SDS011;2586;48.710;9.202;2022-12-04T16:24:04;38.13;;;18.17;;
5135;SDS011;2586;48.710;9.202;2022-12-04T16:26:31;35.83;;;18.03;;
5135;SDS011;2586;48.710;9.202;2022-12-04T16:28:57;37.10;;;18.00;;
5135;SDS011;2586;48.710;9.202;2022-12-04T16:31:23;32.87;;;16.23;;
5135;SDS011;2586;48.710;9.202;2022-12-04T16:33:49;37.40;;;17.90;;
5135;SDS011;2586;48.710;9.202;2022-12-04T16:36:15;36.47;;;16.77;;
5135;SDS011;2586;48.710;9.202;2022-12-04T16:38:41;32.40;;;16.27;;
5135;SDS011;2586;48.710;9.202;2022-12-04T16:41:11;31.30;;;14.60;;
5135;SDS011;2586;48.710;9.202;2022-12-04T16:43:38;31.23;;;16.67;;
5135;SDS011;2586;48.710;9.202;2022-12-04T16:46:04;39.27;;;18.17;;
5135;SDS011;2586;48.710;9.202;2022-12-04T16:48:29;32.67;;;15.60;;
5135;SDS011;2586;48.710;9.202;2022-12-04T16:50:58;38.37;;;18.20;;
5135;SDS011;2586;48.710;9.202;2022-12-04T16:53:25;37.20;;;17.87;;
5135;SDS011;2586;48.710;9.202;2022-12-04T16:55:50;37.67;;;17.20;;
5135;SDS011;2586;48.710;9.202;2022-12-04T16:58:17;40.03;;;17.50;;
5135;SDS011;2586;48.710;9.202;2022-12-04T17:00:54;41.63;;;18.47;;
5135;SDS011;2586;48.710;9.202;2022-12-04T17:03:22;40.90;;;18.10;;
5135;SDS011;2586;48.710;9.202;2022-12-04T17:05:51;42.67;;;17.57;;
5135;SDS011;2586;48.710;9.202;2022-12-04T17:08:17;37.13;;;16.87;;
5135;SDS011;2586;48.710;9.202;2022-12-04T17:10:42;34.57;;;16.23;;
5135;SDS011;2586;48.710;9.202;2022-12-04T17:13:08;40.27;;;17.20;;
5135;SDS011;2586;48.710;9.202;2022-12-04T17:15:34;35.63;;;16.87;;
5135;SDS011;2586;48.710;9.202;2022-12-04T17:18:00;41.40;;;18.37;;
5135;SDS011;2586;48.710;9.202;2022-12-04T17:20:25;42.00;;;18.13;;
5135;SDS011;2586;48.710;9.202;2022-12-04T17:22:51;40.67;;;17.33;;
5135;SDS011;2586;48.710;9.202;2022-12-04T17:25:17;42.73;;;17.80;;
5135;SDS011;2586;48.710;9.202;2022-12-04T17:27:43;36.30;;;17.93;;
5135;SDS011;2586;48.710;9.202;2022-12-04T17:30:09;45.13;;;17.70;;
5135;SDS011;2586;48.710;9.202;2022-12-04T17:32:36;46.77;;;19.33;;
5135;SDS011;2586;48.710;9.202;2022-12-04T17:35:01;32.67;;;15.70;;
5135;SDS011;2586;48.710;9.202;2022-12-04T17:37:30;45.10;;;18.87;;
5135;SDS011;2586;48.710;9.202;2022-12-04T17:39:56;38.10;;;16.73;;
5135;SDS011;2586;48.710;9.202;2022-12-04T17:42:21;44.03;;;16.50;;
5135;SDS011;2586;48.710;9.202;2022-12-04T17:44:47;39.37;;;19.47;;
5135;SDS011;2586;48.710;9.202;2022-12-04T17:47:13;45.93;;;19.40;;
5135;SDS011;2586;48.710;9.202;2022-12-04T17:49:38;48.63;;;19.40;;